sensor_id;sensor_type;location;lat;lon;timestamp;P1;durP1;ratioP1;P2;durP2;ratioP2
7162;SDS011;3623;47.098;15.446;2023-02-28T00:01:04;8.27;;;7.47;;
7162;SDS011;3623;47.098;15.446;2023-02-28T00:03:31;8.93;;;5.95;;
7162;SDS011;3623;47.098;15.446;2023-02-28T00:06:00;7.30;;;6.60;;
7162;SDS011;3623;47.098;15.446;2023-02-28T00:08:29;7.03;;;6.38;;
7162;SDS011;3623;47.098;15.446;2023-02-28T00:10:59;7.00;;;6.40;;
7162;SDS011;3623;47.098;15.446;2023-02-28T00:13:28;7.63;;;6.80;;
7162;SDS011;3623;47.098;15.446;2023-02-28T00:15:58;7.50;;;6.90;;
7162;SDS011;3623;47.098;15.446;2023-02-28T00:18:26;7.45;;;6.95;;
7162;SDS011;3623;47.098;15.446;2023-02-28T00:20:53;10.35;;;7.35;;
7162;SDS011;3623;47.098;15.446;2023-02-28T00:23:21;6.68;;;6.10;;
7162;SDS011;3623;47.098;15.446;2023-02-28T00:25:49;8.48;;;6.72;;
7162;SDS011;3623;47.098;15.446;2023-02-28T00:28:16;10.38;;;7.00;;
7162;SDS011;3623;47.098;15.446;2023-02-28T00:30:44;6.75;;;6.30;;
7162;SDS011;3623;47.098;15.446;2023-02-28T00:33:11;9.48;;;8.15;;
7162;SDS011;3623;47.098;15.446;2023-02-28T00:35:38;7.38;;;6.65;;
7162;SDS011;3623;47.098;15.446;2023-02-28T00:38:06;7.05;;;6.47;;
7162;SDS011;3623;47.098;15.446;2023-02-28T00:40:33;7.05;;;6.38;;
7162;SDS011;3623;47.098;15.446;2023-02-28T00:43:01;7.00;;;6.40;;
7162;SDS011;3623;47.098;15.446;2023-02-28T00:45:29;6.85;;;6.07;;
7162;SDS011;3623;47.098;15.446;2023-02-28T00:47:56;5.72;;;5.32;;
7162;SDS011;3623;47.098;15.446;2023-02-28T00:50:24;6.65;;;6.15;;
7162;SDS011;3623;47.098;15.446;2023-02-28T00:52:51;7.60;;;7.00;;
7162;SDS011;3623;47.098;15.446;2023-02-28T00:55:18;7.60;;;6.55;;
7162;SDS011;3623;47.098;15.446;2023-02-28T00:57:45;7.90;;;7.30;;
7162;SDS011;3623;47.098;15.446;2023-02-28T01:00:14;7.15;;;6.45;;
7162;SDS011;3623;47.098;15.446;2023-02-28T01:02:41;7.72;;;5.90;;
7162;SDS011;3623;47.098;15.446;2023-02-28T01:05:08;7.15;;;6.38;;
7162;SDS011;3623;47.098;15.446;2023-02-28T01:07:36;6.30;;;5.80;;
7162;SDS011;3623;47.098;15.446;2023-02-28T01:10:03;7.55;;;6.43;;
7162;SDS011;3623;47.098;15.446;2023-02-28T01:12:31;8.50;;;6.35;;
7162;SDS011;3623;47.098;15.446;2023-02-28T01:14:58;7.13;;;6.47;;
7162;SDS011;3623;47.098;15.446;2023-02-28T01:17:26;8.10;;;7.28;;
7162;SDS011;3623;47.098;15.446;2023-02-28T01:19:54;7.78;;;6.97;;
7162;SDS011;3623;47.098;15.446;2023-02-28T01:22:21;8.02;;;6.85;;
7162;SDS011;3623;47.098;15.446;2023-02-28T01:24:48;7.25;;;6.63;;
7162;SDS011;3623;47.098;15.446;2023-02-28T01:27:15;7.65;;;7.05;;
7162;SDS011;3623;47.098;15.446;2023-02-28T01:29:42;7.90;;;6.57;;
7162;SDS011;3623;47.098;15.446;2023-02-28T01:32:09;8.18;;;6.43;;
7162;SDS011;3623;47.098;15.446;2023-02-28T01:34:38;7.20;;;6.60;;
7162;SDS011;3623;47.098;15.446;2023-02-28T01:37:05;7.43;;;6.70;;
7162;SDS011;3623;47.098;15.446;2023-02-28T01:39:32;7.28;;;6.50;;
7162;SDS011;3623;47.098;15.446;2023-02-28T01:41:59;7.28;;;6.40;;
7162;SDS011;3623;47.098;15.446;2023-02-28T01:47:24;7.20;;;6.70;;
7162;SDS011;3623;47.098;15.446;2023-02-28T01:49:56;6.72;;;6.05;;
7162;SDS011;3623;47.098;15.446;2023-02-28T01:52:24;7.55;;;6.45;;
7162;SDS011;3623;47.098;15.446;2023-02-28T01:54:54;6.95;;;6.30;;
7162;SDS011;3623;47.098;15.446;2023-02-28T01:57:23;6.65;;;6.05;;
7162;SDS011;3623;47.098;15.446;2023-02-28T01:59:54;8.48;;;6.75;;
7162;SDS011;3623;47.098;15.446;2023-02-28T02:02:24;7.68;;;6.93;;
7162;SDS011;3623;47.098;15.446;2023-02-28T02:04:53;7.00;;;6.30;;
7162;SDS011;3623;47.098;15.446;2023-02-28T02:07:26;7.15;;;6.50;;
7162;SDS011;3623;47.098;15.446;2023-02-28T02:10:01;6.43;;;5.93;;
7162;SDS011;3623;47.098;15.446;2023-02-28T02:12:32;6.45;;;6.00;;
7162;SDS011;3623;47.098;15.446;2023-02-28T02:15:10;7.75;;;6.95;;
7162;SDS011;3623;47.098;15.446;2023-02-28T02:17:42;7.18;;;6.10;;
7162;SDS011;3623;47.098;15.446;2023-02-28T02:20:24;6.50;;;6.00;;
7162;SDS011;3623;47.098;15.446;2023-02-28T02:23:32;7.60;;;7.00;;
7162;SDS011;3623;47.098;15.446;2023-02-28T02:26:44;7.47;;;6.72;;
7162;SDS011;3623;47.098;15.446;2023-02-28T02:32:38;6.72;;;6.13;;
7162;SDS011;3623;47.098;15.446;2023-02-28T02:35:17;9.48;;;7.20;;
7162;SDS011;3623;47.098;15.446;2023-02-28T02:37:51;7.32;;;6.63;;
7162;SDS011;3623;47.098;15.446;2023-02-28T02:40:24;7.07;;;6.50;;
7162;SDS011;3623;47.098;15.446;2023-02-28T02:42:58;6.88;;;6.35;;
7162;SDS011;3623;47.098;15.446;2023-02-28T02:45:31;6.38;;;5.88;;
7162;SDS011;3623;47.098;15.446;2023-02-28T02:48:03;8.60;;;7.80;;
7162;SDS011;3623;47.098;15.446;2023-02-28T02:50:36;7.45;;;6.82;;
7162;SDS011;3623;47.098;15.446;2023-02-28T02:53:06;7.95;;;7.28;;
7162;SDS011;3623;47.098;15.446;2023-02-28T02:55:37;7.63;;;6.85;;
7162;SDS011;3623;47.098;15.446;2023-02-28T02:58:07;8.40;;;6.50;;
7162;SDS011;3623;47.098;15.446;2023-02-28T03:00:39;8.10;;;7.13;;
7162;SDS011;3623;47.098;15.446;2023-02-28T03:03:10;8.80;;;7.90;;
7162;SDS011;3623;47.098;15.446;2023-02-28T03:05:41;8.40;;;7.57;;
7162;SDS011;3623;47.098;15.446;2023-02-28T03:08:12;10.85;;;8.05;;
7162;SDS011;3623;47.098;15.446;2023-02-28T03:10:40;7.70;;;7.10;;
7162;SDS011;3623;47.098;15.446;2023-02-28T03:13:12;9.15;;;8.35;;
7162;SDS011;3623;47.098;15.446;2023-02-28T03:16:18;8.73;;;7.82;;
7162;SDS011;3623;47.098;15.446;2023-02-28T03:19:15;7.75;;;7.05;;
7162;SDS011;3623;47.098;15.446;2023-02-28T03:21:55;8.43;;;7.63;;
7162;SDS011;3623;47.098;15.446;2023-02-28T03:24:31;7.30;;;6.63;;
7162;SDS011;3623;47.098;15.446;2023-02-28T03:27:07;7.63;;;6.93;;
7162;SDS011;3623;47.098;15.446;2023-02-28T03:29:39;7.00;;;6.35;;
7162;SDS011;3623;47.098;15.446;2023-02-28T03:32:11;8.10;;;7.10;;
7162;SDS011;3623;47.098;15.446;2023-02-28T03:34:47;8.15;;;7.32;;
7162;SDS011;3623;47.098;15.446;2023-02-28T03:37:20;8.15;;;7.35;;
7162;SDS011;3623;47.098;15.446;2023-02-28T03:39:52;9.15;;;7.57;;
7162;SDS011;3623;47.098;15.446;2023-02-28T03:42:23;6.95;;;6.45;;
7162;SDS011;3623;47.098;15.446;2023-02-28T03:44:54;8.13;;;7.40;;
7162;SDS011;3623;47.098;15.446;2023-02-28T03:47:25;9.15;;;6.75;;
7162;SDS011;3623;47.098;15.446;2023-02-28T03:49:59;8.02;;;7.32;;
7162;SDS011;3623;47.098;15.446;2023-02-28T03:52:33;8.35;;;7.60;;
7162;SDS011;3623;47.098;15.446;2023-02-28T03:55:05;7.90;;;7.10;;
7162;SDS011;3623;47.098;15.446;2023-02-28T03:57:37;9.02;;;7.80;;
7162;SDS011;3623;47.098;15.446;2023-02-28T04:00:08;7.63;;;7.03;;
7162;SDS011;3623;47.098;15.446;2023-02-28T04:02:39;8.52;;;7.32;;
7162;SDS011;3623;47.098;15.446;2023-02-28T04:05:06;7.95;;;7.22;;
7162;SDS011;3623;47.098;15.446;2023-02-28T04:07:35;10.23;;;7.78;;
7162;SDS011;3623;47.098;15.446;2023-02-28T04:10:03;7.60;;;6.80;;
7162;SDS011;3623;47.098;15.446;2023-02-28T04:12:31;7.38;;;6.75;;
7162;SDS011;3623;47.098;15.446;2023-02-28T04:14:58;8.15;;;7.45;;
7162;SDS011;3623;47.098;15.446;2023-02-28T04:17:25;8.52;;;7.72;;
7162;SDS011;3623;47.098;15.446;2023-02-28T04:19:52;9.20;;;7.18;;
7162;SDS011;3623;47.098;15.446;2023-02-28T04:22:22;10.07;;;8.57;;
7162;SDS011;3623;47.098;15.446;2023-02-28T04:24:52;9.20;;;7.95;;
7162;SDS011;3623;47.098;15.446;2023-02-28T04:27:19;8.07;;;7.35;;
7162;SDS011;3623;47.098;15.446;2023-02-28T04:29:47;7.95;;;7.30;;
7162;SDS011;3623;47.098;15.446;2023-02-28T04:32:14;13.18;;;8.43;;
7162;SDS011;3623;47.098;15.446;2023-02-28T04:34:41;9.00;;;8.07;;
7162;SDS011;3623;47.098;15.446;2023-02-28T04:37:08;9.20;;;8.15;;
7162;SDS011;3623;47.098;15.446;2023-02-28T04:39:35;8.88;;;8.00;;
7162;SDS011;3623;47.098;15.446;2023-02-28T04:42:04;9.18;;;8.38;;
7162;SDS011;3623;47.098;15.446;2023-02-28T04:44:31;12.43;;;8.20;;
7162;SDS011;3623;47.098;15.446;2023-02-28T04:46:58;7.80;;;6.80;;
7162;SDS011;3623;47.098;15.446;2023-02-28T04:49:25;8.32;;;7.53;;
7162;SDS011;3623;47.098;15.446;2023-02-28T04:51:52;12.40;;;8.30;;
7162;SDS011;3623;47.098;15.446;2023-02-28T04:54:20;9.02;;;7.55;;
7162;SDS011;3623;47.098;15.446;2023-02-28T04:56:47;9.18;;;7.30;;
7162;SDS011;3623;47.098;15.446;2023-02-28T04:59:16;7.57;;;6.97;;
7162;SDS011;3623;47.098;15.446;2023-02-28T05:01:45;8.57;;;7.35;;
7162;SDS011;3623;47.098;15.446;2023-02-28T05:04:13;8.70;;;7.53;;
7162;SDS011;3623;47.098;15.446;2023-02-28T05:06:41;10.05;;;9.07;;
7162;SDS011;3623;47.098;15.446;2023-02-28T05:09:08;10.70;;;7.45;;
7162;SDS011;3623;47.098;15.446;2023-02-28T05:11:36;9.60;;;7.28;;
7162;SDS011;3623;47.098;15.446;2023-02-28T05:14:04;11.07;;;8.93;;
7162;SDS011;3623;47.098;15.446;2023-02-28T05:16:34;8.65;;;7.53;;
7162;SDS011;3623;47.098;15.446;2023-02-28T05:19:01;8.25;;;7.43;;
7162;SDS011;3623;47.098;15.446;2023-02-28T05:21:29;9.63;;;8.02;;
7162;SDS011;3623;47.098;15.446;2023-02-28T05:23:58;8.95;;;8.07;;
7162;SDS011;3623;47.098;15.446;2023-02-28T05:26:26;9.20;;;8.15;;
7162;SDS011;3623;47.098;15.446;2023-02-28T05:28:54;8.52;;;7.63;;
7162;SDS011;3623;47.098;15.446;2023-02-28T05:31:21;10.32;;;8.85;;
7162;SDS011;3623;47.098;15.446;2023-02-28T05:33:50;9.52;;;8.63;;
7162;SDS011;3623;47.098;15.446;2023-02-28T05:36:17;9.43;;;8.45;;
7162;SDS011;3623;47.098;15.446;2023-02-28T05:38:45;8.68;;;7.93;;
7162;SDS011;3623;47.098;15.446;2023-02-28T05:41:14;12.85;;;9.93;;
7162;SDS011;3623;47.098;15.446;2023-02-28T05:43:41;10.18;;;8.77;;
7162;SDS011;3623;47.098;15.446;2023-02-28T05:46:09;9.93;;;8.98;;
7162;SDS011;3623;47.098;15.446;2023-02-28T05:48:38;10.02;;;9.13;;
7162;SDS011;3623;47.098;15.446;2023-02-28T05:51:08;9.85;;;8.93;;
7162;SDS011;3623;47.098;15.446;2023-02-28T05:53:35;9.70;;;8.82;;
7162;SDS011;3623;47.098;15.446;2023-02-28T05:56:03;10.20;;;9.18;;
7162;SDS011;3623;47.098;15.446;2023-02-28T05:58:31;10.75;;;8.18;;
7162;SDS011;3623;47.098;15.446;2023-02-28T06:00:59;9.95;;;9.05;;
7162;SDS011;3623;47.098;15.446;2023-02-28T06:03:28;11.55;;;8.75;;
7162;SDS011;3623;47.098;15.446;2023-02-28T06:05:55;14.93;;;9.93;;
7162;SDS011;3623;47.098;15.446;2023-02-28T06:08:23;13.38;;;10.27;;
7162;SDS011;3623;47.098;15.446;2023-02-28T06:10:50;11.02;;;8.75;;
7162;SDS011;3623;47.098;15.446;2023-02-28T06:13:18;12.05;;;9.30;;
7162;SDS011;3623;47.098;15.446;2023-02-28T06:15:45;15.18;;;10.00;;
7162;SDS011;3623;47.098;15.446;2023-02-28T06:18:12;10.00;;;8.70;;
7162;SDS011;3623;47.098;15.446;2023-02-28T06:20:39;10.02;;;9.02;;
7162;SDS011;3623;47.098;15.446;2023-02-28T06:23:08;15.10;;;9.93;;
7162;SDS011;3623;47.098;15.446;2023-02-28T06:25:37;9.65;;;8.65;;
7162;SDS011;3623;47.098;15.446;2023-02-28T06:28:04;10.95;;;9.40;;
7162;SDS011;3623;47.098;15.446;2023-02-28T06:30:31;14.90;;;9.20;;
7162;SDS011;3623;47.098;15.446;2023-02-28T06:32:59;13.00;;;9.60;;
7162;SDS011;3623;47.098;15.446;2023-02-28T06:35:26;11.30;;;9.13;;
7162;SDS011;3623;47.098;15.446;2023-02-28T06:37:53;11.82;;;9.02;;
7162;SDS011;3623;47.098;15.446;2023-02-28T06:40:20;13.75;;;10.45;;
7162;SDS011;3623;47.098;15.446;2023-02-28T06:42:48;12.55;;;9.80;;
7162;SDS011;3623;47.098;15.446;2023-02-28T06:45:15;11.52;;;9.18;;
7162;SDS011;3623;47.098;15.446;2023-02-28T06:47:42;10.02;;;9.00;;
7162;SDS011;3623;47.098;15.446;2023-02-28T06:50:10;11.70;;;10.50;;
7162;SDS011;3623;47.098;15.446;2023-02-28T06:52:38;11.70;;;9.60;;
7162;SDS011;3623;47.098;15.446;2023-02-28T06:55:06;11.20;;;10.00;;
7162;SDS011;3623;47.098;15.446;2023-02-28T06:57:34;13.13;;;10.45;;
7162;SDS011;3623;47.098;15.446;2023-02-28T07:00:05;13.10;;;10.35;;
7162;SDS011;3623;47.098;15.446;2023-02-28T07:02:34;11.07;;;9.70;;
7162;SDS011;3623;47.098;15.446;2023-02-28T07:05:02;14.02;;;12.52;;
7162;SDS011;3623;47.098;15.446;2023-02-28T07:07:30;12.77;;;9.25;;
7162;SDS011;3623;47.098;15.446;2023-02-28T07:09:57;12.30;;;9.68;;
7162;SDS011;3623;47.098;15.446;2023-02-28T07:12:24;13.25;;;10.27;;
7162;SDS011;3623;47.098;15.446;2023-02-28T07:14:51;11.00;;;9.27;;
7162;SDS011;3623;47.098;15.446;2023-02-28T07:17:20;13.85;;;9.15;;
7162;SDS011;3623;47.098;15.446;2023-02-28T07:19:48;10.30;;;9.30;;
7162;SDS011;3623;47.098;15.446;2023-02-28T07:22:15;14.30;;;10.88;;
7162;SDS011;3623;47.098;15.446;2023-02-28T07:24:42;11.10;;;9.55;;
7162;SDS011;3623;47.098;15.446;2023-02-28T07:27:09;9.80;;;8.80;;
7162;SDS011;3623;47.098;15.446;2023-02-28T07:29:36;12.82;;;11.02;;
7162;SDS011;3623;47.098;15.446;2023-02-28T07:32:03;10.35;;;9.15;;
7162;SDS011;3623;47.098;15.446;2023-02-28T07:34:32;10.00;;;9.00;;
7162;SDS011;3623;47.098;15.446;2023-02-28T07:36:59;10.95;;;9.75;;
7162;SDS011;3623;47.098;15.446;2023-02-28T07:39:28;10.07;;;9.07;;
7162;SDS011;3623;47.098;15.446;2023-02-28T07:41:55;12.15;;;10.88;;
7162;SDS011;3623;47.098;15.446;2023-02-28T07:44:24;11.10;;;9.90;;
7162;SDS011;3623;47.098;15.446;2023-02-28T07:46:51;14.13;;;10.48;;
7162;SDS011;3623;47.098;15.446;2023-02-28T07:49:19;11.98;;;9.88;;
7162;SDS011;3623;47.098;15.446;2023-02-28T07:51:47;13.20;;;9.52;;
7162;SDS011;3623;47.098;15.446;2023-02-28T07:54:16;12.38;;;10.30;;
7162;SDS011;3623;47.098;15.446;2023-02-28T07:56:43;14.38;;;9.05;;
7162;SDS011;3623;47.098;15.446;2023-02-28T07:59:10;14.15;;;11.02;;
7162;SDS011;3623;47.098;15.446;2023-02-28T08:01:37;12.50;;;9.90;;
7162;SDS011;3623;47.098;15.446;2023-02-28T08:04:04;13.93;;;10.23;;
7162;SDS011;3623;47.098;15.446;2023-02-28T08:06:31;11.90;;;10.48;;
7162;SDS011;3623;47.098;15.446;2023-02-28T08:09:00;12.73;;;9.55;;
7162;SDS011;3623;47.098;15.446;2023-02-28T08:11:27;13.52;;;11.50;;
7162;SDS011;3623;47.098;15.446;2023-02-28T08:13:54;11.57;;;9.50;;
7162;SDS011;3623;47.098;15.446;2023-02-28T08:16:21;13.20;;;11.57;;
7162;SDS011;3623;47.098;15.446;2023-02-28T08:18:48;11.52;;;10.32;;
7162;SDS011;3623;47.098;15.446;2023-02-28T08:21:16;12.35;;;11.02;;
7162;SDS011;3623;47.098;15.446;2023-02-28T08:23:43;15.60;;;10.65;;
7162;SDS011;3623;47.098;15.446;2023-02-28T08:26:13;12.52;;;9.85;;
7162;SDS011;3623;47.098;15.446;2023-02-28T08:28:40;19.58;;;10.80;;
7162;SDS011;3623;47.098;15.446;2023-02-28T08:31:08;13.90;;;10.57;;
7162;SDS011;3623;47.098;15.446;2023-02-28T08:33:36;11.52;;;9.95;;
7162;SDS011;3623;47.098;15.446;2023-02-28T08:36:04;15.27;;;11.82;;
7162;SDS011;3623;47.098;15.446;2023-02-28T08:38:32;14.02;;;10.70;;
7162;SDS011;3623;47.098;15.446;2023-02-28T08:41:00;13.85;;;10.48;;
7162;SDS011;3623;47.098;15.446;2023-02-28T08:43:29;12.70;;;10.27;;
7162;SDS011;3623;47.098;15.446;2023-02-28T08:45:56;12.68;;;11.07;;
7162;SDS011;3623;47.098;15.446;2023-02-28T08:48:23;12.20;;;10.77;;
7162;SDS011;3623;47.098;15.446;2023-02-28T08:50:57;13.10;;;10.73;;
7162;SDS011;3623;47.098;15.446;2023-02-28T08:53:24;12.40;;;9.82;;
7162;SDS011;3623;47.098;15.446;2023-02-28T08:55:55;11.35;;;10.25;;
7162;SDS011;3623;47.098;15.446;2023-02-28T08:58:23;12.98;;;11.15;;
7162;SDS011;3623;47.098;15.446;2023-02-28T09:00:52;18.35;;;11.48;;
7162;SDS011;3623;47.098;15.446;2023-02-28T09:03:19;12.48;;;11.18;;
7162;SDS011;3623;47.098;15.446;2023-02-28T09:05:56;12.95;;;10.73;;
7162;SDS011;3623;47.098;15.446;2023-02-28T09:08:25;13.77;;;12.30;;
7162;SDS011;3623;47.098;15.446;2023-02-28T09:10:53;19.00;;;11.55;;
7162;SDS011;3623;47.098;15.446;2023-02-28T09:13:22;13.82;;;10.63;;
7162;SDS011;3623;47.098;15.446;2023-02-28T09:15:51;14.55;;;11.18;;
7162;SDS011;3623;47.098;15.446;2023-02-28T09:18:19;16.20;;;11.52;;
7162;SDS011;3623;47.098;15.446;2023-02-28T09:20:46;10.38;;;9.30;;
7162;SDS011;3623;47.098;15.446;2023-02-28T09:23:14;12.90;;;11.13;;
7162;SDS011;3623;47.098;15.446;2023-02-28T09:25:45;11.98;;;10.75;;
7162;SDS011;3623;47.098;15.446;2023-02-28T09:28:13;14.32;;;11.18;;
7162;SDS011;3623;47.098;15.446;2023-02-28T09:30:42;15.23;;;10.63;;
7162;SDS011;3623;47.098;15.446;2023-02-28T09:33:12;12.00;;;10.65;;
7162;SDS011;3623;47.098;15.446;2023-02-28T09:35:40;16.27;;;11.15;;
7162;SDS011;3623;47.098;15.446;2023-02-28T09:38:08;14.10;;;11.88;;
7162;SDS011;3623;47.098;15.446;2023-02-28T09:40:37;14.27;;;10.85;;
7162;SDS011;3623;47.098;15.446;2023-02-28T09:43:12;15.43;;;11.43;;
7162;SDS011;3623;47.098;15.446;2023-02-28T09:45:42;14.95;;;12.48;;
7162;SDS011;3623;47.098;15.446;2023-02-28T09:48:17;14.85;;;12.10;;
7162;SDS011;3623;47.098;15.446;2023-02-28T09:50:48;14.82;;;11.98;;
7162;SDS011;3623;47.098;15.446;2023-02-28T09:53:19;11.60;;;10.40;;
7162;SDS011;3623;47.098;15.446;2023-02-28T09:55:48;14.88;;;10.88;;
7162;SDS011;3623;47.098;15.446;2023-02-28T09:58:20;14.63;;;10.80;;
7162;SDS011;3623;47.098;15.446;2023-02-28T10:00:56;13.85;;;12.10;;
7162;SDS011;3623;47.098;15.446;2023-02-28T10:03:29;14.35;;;10.95;;
7162;SDS011;3623;47.098;15.446;2023-02-28T10:06:03;18.77;;;12.13;;
7162;SDS011;3623;47.098;15.446;2023-02-28T10:08:36;12.70;;;10.88;;
7162;SDS011;3623;47.098;15.446;2023-02-28T10:11:11;15.70;;;12.35;;
7162;SDS011;3623;47.098;15.446;2023-02-28T10:13:46;14.75;;;11.55;;
7162;SDS011;3623;47.098;15.446;2023-02-28T10:16:21;12.73;;;11.07;;
7162;SDS011;3623;47.098;15.446;2023-02-28T10:18:54;16.08;;;11.57;;
7162;SDS011;3623;47.098;15.446;2023-02-28T10:21:26;13.73;;;10.38;;
7162;SDS011;3623;47.098;15.446;2023-02-28T10:24:01;14.80;;;11.40;;
7162;SDS011;3623;47.098;15.446;2023-02-28T10:26:31;16.73;;;12.25;;
7162;SDS011;3623;47.098;15.446;2023-02-28T10:28:59;13.60;;;11.20;;
7162;SDS011;3623;47.098;15.446;2023-02-28T10:31:27;15.68;;;11.77;;
7162;SDS011;3623;47.098;15.446;2023-02-28T10:33:56;13.48;;;10.95;;
7162;SDS011;3623;47.098;15.446;2023-02-28T10:36:23;18.25;;;12.73;;
7162;SDS011;3623;47.098;15.446;2023-02-28T10:38:50;14.07;;;11.48;;
7162;SDS011;3623;47.098;15.446;2023-02-28T10:41:26;13.20;;;11.75;;
7162;SDS011;3623;47.098;15.446;2023-02-28T10:46:41;14.00;;;12.00;;
7162;SDS011;3623;47.098;15.446;2023-02-28T10:49:14;16.38;;;11.93;;
7162;SDS011;3623;47.098;15.446;2023-02-28T10:51:44;14.43;;;11.75;;
7162;SDS011;3623;47.098;15.446;2023-02-28T10:54:18;13.13;;;11.48;;
7162;SDS011;3623;47.098;15.446;2023-02-28T10:56:59;17.98;;;11.45;;
7162;SDS011;3623;47.098;15.446;2023-02-28T10:59:33;13.52;;;12.13;;
7162;SDS011;3623;47.098;15.446;2023-02-28T11:02:01;12.13;;;10.13;;
7162;SDS011;3623;47.098;15.446;2023-02-28T11:04:33;14.55;;;12.88;;
7162;SDS011;3623;47.098;15.446;2023-02-28T11:07:05;15.75;;;11.95;;
7162;SDS011;3623;47.098;15.446;2023-02-28T11:09:41;13.40;;;10.82;;
7162;SDS011;3623;47.098;15.446;2023-02-28T11:12:19;16.88;;;12.27;;
7162;SDS011;3623;47.098;15.446;2023-02-28T11:14:49;14.98;;;12.32;;
7162;SDS011;3623;47.098;15.446;2023-02-28T11:17:20;13.15;;;11.23;;
7162;SDS011;3623;47.098;15.446;2023-02-28T11:19:51;19.23;;;12.23;;
7162;SDS011;3623;47.098;15.446;2023-02-28T11:22:23;13.43;;;11.25;;
7162;SDS011;3623;47.098;15.446;2023-02-28T11:24:54;15.25;;;11.55;;
7162;SDS011;3623;47.098;15.446;2023-02-28T11:27:40;14.70;;;12.48;;
7162;SDS011;3623;47.098;15.446;2023-02-28T11:32:57;17.20;;;12.23;;
7162;SDS011;3623;47.098;15.446;2023-02-28T11:35:28;18.88;;;12.20;;
7162;SDS011;3623;47.098;15.446;2023-02-28T11:37:59;12.55;;;11.05;;
7162;SDS011;3623;47.098;15.446;2023-02-28T11:40:29;12.13;;;10.48;;
7162;SDS011;3623;47.098;15.446;2023-02-28T11:43:09;19.77;;;13.20;;
7162;SDS011;3623;47.098;15.446;2023-02-28T11:45:51;12.57;;;11.27;;
7162;SDS011;3623;47.098;15.446;2023-02-28T11:48:30;13.93;;;12.48;;
7162;SDS011;3623;47.098;15.446;2023-02-28T11:51:07;14.52;;;12.32;;
7162;SDS011;3623;47.098;15.446;2023-02-28T11:53:48;17.17;;;12.30;;
7162;SDS011;3623;47.098;15.446;2023-02-28T11:56:26;18.73;;;13.43;;
7162;SDS011;3623;47.098;15.446;2023-02-28T11:59:04;20.58;;;14.02;;
7162;SDS011;3623;47.098;15.446;2023-02-28T12:01:52;19.13;;;13.93;;
7162;SDS011;3623;47.098;15.446;2023-02-28T12:04:32;14.50;;;11.75;;
7162;SDS011;3623;47.098;15.446;2023-02-28T12:07:06;14.98;;;11.60;;
7162;SDS011;3623;47.098;15.446;2023-02-28T12:09:40;14.25;;;12.75;;
7162;SDS011;3623;47.098;15.446;2023-02-28T12:12:21;17.10;;;13.48;;
7162;SDS011;3623;47.098;15.446;2023-02-28T12:15:02;17.10;;;11.80;;
7162;SDS011;3623;47.098;15.446;2023-02-28T12:17:44;18.25;;;13.32;;
7162;SDS011;3623;47.098;15.446;2023-02-28T12:20:23;16.38;;;13.95;;
7162;SDS011;3623;47.098;15.446;2023-02-28T12:23:00;15.25;;;12.07;;
7162;SDS011;3623;47.098;15.446;2023-02-28T12:28:35;20.35;;;13.98;;
7162;SDS011;3623;47.098;15.446;2023-02-28T12:31:08;15.85;;;12.88;;
7162;SDS011;3623;47.098;15.446;2023-02-28T12:33:40;14.63;;;12.35;;
7162;SDS011;3623;47.098;15.446;2023-02-28T12:36:13;14.50;;;12.45;;
7162;SDS011;3623;47.098;15.446;2023-02-28T12:38:46;14.50;;;12.88;;
7162;SDS011;3623;47.098;15.446;2023-02-28T12:41:18;14.18;;;12.63;;
7162;SDS011;3623;47.098;15.446;2023-02-28T12:43:51;18.55;;;13.55;;
7162;SDS011;3623;47.098;15.446;2023-02-28T12:46:22;14.30;;;11.18;;
7162;SDS011;3623;47.098;15.446;2023-02-28T12:48:52;19.40;;;13.68;;
7162;SDS011;3623;47.098;15.446;2023-02-28T12:51:22;15.77;;;13.75;;
7162;SDS011;3623;47.098;15.446;2023-02-28T12:53:54;20.27;;;14.43;;
7162;SDS011;3623;47.098;15.446;2023-02-28T12:56:33;19.70;;;14.27;;
7162;SDS011;3623;47.098;15.446;2023-02-28T12:59:10;20.48;;;13.07;;
7162;SDS011;3623;47.098;15.446;2023-02-28T13:04:57;17.65;;;13.13;;
7162;SDS011;3623;47.098;15.446;2023-02-28T13:11:02;19.25;;;14.60;;
7162;SDS011;3623;47.098;15.446;2023-02-28T13:13:30;17.55;;;13.68;;
7162;SDS011;3623;47.098;15.446;2023-02-28T13:15:58;15.93;;;12.93;;
7162;SDS011;3623;47.098;15.446;2023-02-28T13:18:30;17.58;;;14.00;;
7162;SDS011;3623;47.098;15.446;2023-02-28T13:21:01;15.57;;;11.73;;
7162;SDS011;3623;47.098;15.446;2023-02-28T13:29:36;17.90;;;11.65;;
7162;SDS011;3623;47.098;15.446;2023-02-28T13:32:28;18.05;;;14.48;;
7162;SDS011;3623;47.098;15.446;2023-02-28T13:38:15;18.52;;;13.13;;
7162;SDS011;3623;47.098;15.446;2023-02-28T13:44:05;17.88;;;13.80;;
7162;SDS011;3623;47.098;15.446;2023-02-28T13:46:35;16.42;;;13.75;;
7162;SDS011;3623;47.098;15.446;2023-02-28T13:49:26;16.48;;;13.60;;
7162;SDS011;3623;47.098;15.446;2023-02-28T13:51:55;17.02;;;14.00;;
7162;SDS011;3623;47.098;15.446;2023-02-28T13:54:40;17.70;;;13.63;;
7162;SDS011;3623;47.098;15.446;2023-02-28T13:57:23;17.10;;;13.13;;
7162;SDS011;3623;47.098;15.446;2023-02-28T14:00:02;18.83;;;14.90;;
7162;SDS011;3623;47.098;15.446;2023-02-28T14:02:46;17.85;;;12.95;;
7162;SDS011;3623;47.098;15.446;2023-02-28T14:05:22;14.38;;;12.77;;
7162;SDS011;3623;47.098;15.446;2023-02-28T14:07:52;13.32;;;11.75;;
7162;SDS011;3623;47.098;15.446;2023-02-28T14:10:24;15.43;;;13.55;;
7162;SDS011;3623;47.098;15.446;2023-02-28T14:12:58;15.98;;;13.45;;
7162;SDS011;3623;47.098;15.446;2023-02-28T14:15:36;13.30;;;11.90;;
7162;SDS011;3623;47.098;15.446;2023-02-28T14:18:14;17.15;;;13.98;;
7162;SDS011;3623;47.098;15.446;2023-02-28T14:20:46;15.80;;;12.60;;
7162;SDS011;3623;47.098;15.446;2023-02-28T14:23:17;21.63;;;15.25;;
7162;SDS011;3623;47.098;15.446;2023-02-28T14:25:54;17.48;;;13.73;;
7162;SDS011;3623;47.098;15.446;2023-02-28T14:28:37;18.92;;;14.15;;
7162;SDS011;3623;47.098;15.446;2023-02-28T14:31:15;17.58;;;13.73;;
7162;SDS011;3623;47.098;15.446;2023-02-28T14:33:57;16.55;;;13.77;;
7162;SDS011;3623;47.098;15.446;2023-02-28T14:36:33;17.77;;;13.23;;
7162;SDS011;3623;47.098;15.446;2023-02-28T14:39:04;17.52;;;13.05;;
7162;SDS011;3623;47.098;15.446;2023-02-28T14:41:33;15.15;;;13.55;;
7162;SDS011;3623;47.098;15.446;2023-02-28T14:44:12;19.98;;;13.50;;
7162;SDS011;3623;47.098;15.446;2023-02-28T14:46:41;19.02;;;13.93;;
7162;SDS011;3623;47.098;15.446;2023-02-28T14:49:12;15.57;;;12.07;;
7162;SDS011;3623;47.098;15.446;2023-02-28T14:51:44;17.02;;;12.27;;
7162;SDS011;3623;47.098;15.446;2023-02-28T14:54:13;16.70;;;12.63;;
7162;SDS011;3623;47.098;15.446;2023-02-28T14:56:42;15.00;;;13.48;;
7162;SDS011;3623;47.098;15.446;2023-02-28T14:59:23;16.48;;;13.60;;
7162;SDS011;3623;47.098;15.446;2023-02-28T15:01:53;15.10;;;12.77;;
7162;SDS011;3623;47.098;15.446;2023-02-28T15:04:41;16.60;;;12.80;;
7162;SDS011;3623;47.098;15.446;2023-02-28T15:07:11;19.25;;;13.82;;
7162;SDS011;3623;47.098;15.446;2023-02-28T15:09:40;16.88;;;12.00;;
7162;SDS011;3623;47.098;15.446;2023-02-28T15:12:07;17.20;;;13.85;;
7162;SDS011;3623;47.098;15.446;2023-02-28T15:14:42;15.88;;;14.27;;
7162;SDS011;3623;47.098;15.446;2023-02-28T15:17:14;15.43;;;12.82;;
7162;SDS011;3623;47.098;15.446;2023-02-28T15:19:50;16.02;;;13.00;;
7162;SDS011;3623;47.098;15.446;2023-02-28T15:22:23;17.45;;;13.40;;
7162;SDS011;3623;47.098;15.446;2023-02-28T15:24:54;25.40;;;14.10;;
7162;SDS011;3623;47.098;15.446;2023-02-28T15:27:23;17.98;;;13.27;;
7162;SDS011;3623;47.098;15.446;2023-02-28T15:29:54;20.58;;;12.35;;
7162;SDS011;3623;47.098;15.446;2023-02-28T15:32:24;19.90;;;12.63;;
7162;SDS011;3623;47.098;15.446;2023-02-28T15:34:54;19.55;;;14.05;;
7162;SDS011;3623;47.098;15.446;2023-02-28T15:37:33;16.80;;;13.10;;
7162;SDS011;3623;47.098;15.446;2023-02-28T15:40:16;15.80;;;12.45;;
7162;SDS011;3623;47.098;15.446;2023-02-28T15:42:58;18.17;;;12.88;;